sensor_id;sensor_type;location;lat;lon;timestamp;P1;durP1;ratioP1;P2;durP2;ratioP2
16272;SDS011;8244;50.044;9.006;2024-03-02T00:03:24;15.30;;;10.43;;
16272;SDS011;8244;50.044;9.006;2024-03-02T00:08:26;16.07;;;10.13;;
16272;SDS011;8244;50.044;9.006;2024-03-02T00:13:28;17.10;;;11.47;;
16272;SDS011;8244;50.044;9.006;2024-03-02T00:18:32;22.07;;;11.93;;
16272;SDS011;8244;50.044;9.006;2024-03-02T00:23:35;18.47;;;11.73;;
16272;SDS011;8244;50.044;9.006;2024-03-02T00:28:37;20.07;;;11.87;;
16272;SDS011;8244;50.044;9.006;2024-03-02T00:33:45;20.03;;;12.00;;
16272;SDS011;8244;50.044;9.006;2024-03-02T00:38:48;21.77;;;12.67;;
16272;SDS011;8244;50.044;9.006;2024-03-02T00:43:54;19.83;;;12.00;;
16272;SDS011;8244;50.044;9.006;2024-03-02T00:49:00;20.60;;;12.43;;
16272;SDS011;8244;50.044;9.006;2024-03-02T00:54:05;21.93;;;13.80;;
16272;SDS011;8244;50.044;9.006;2024-03-02T00:59:09;18.70;;;12.50;;
16272;SDS011;8244;50.044;9.006;2024-03-02T01:04:13;22.13;;;14.00;;
16272;SDS011;8244;50.044;9.006;2024-03-02T01:09:15;23.93;;;14.40;;
16272;SDS011;8244;50.044;9.006;2024-03-02T01:14:17;24.23;;;15.07;;
16272;SDS011;8244;50.044;9.006;2024-03-02T01:19:20;30.77;;;15.60;;
16272;SDS011;8244;50.044;9.006;2024-03-02T01:24:22;26.67;;;15.87;;
16272;SDS011;8244;50.044;9.006;2024-03-02T01:29:24;27.07;;;16.37;;
16272;SDS011;8244;50.044;9.006;2024-03-02T01:34:27;26.47;;;17.03;;
16272;SDS011;8244;50.044;9.006;2024-03-02T01:39:32;30.67;;;17.93;;
16272;SDS011;8244;50.044;9.006;2024-03-02T01:44:34;28.30;;;17.63;;
16272;SDS011;8244;50.044;9.006;2024-03-02T01:49:37;30.67;;;18.00;;
16272;SDS011;8244;50.044;9.006;2024-03-02T01:54:40;32.63;;;18.33;;
16272;SDS011;8244;50.044;9.006;2024-03-02T01:59:43;28.93;;;17.43;;
16272;SDS011;8244;50.044;9.006;2024-03-02T02:04:47;31.83;;;18.17;;
16272;SDS011;8244;50.044;9.006;2024-03-02T02:09:49;30.80;;;18.47;;
16272;SDS011;8244;50.044;9.006;2024-03-02T02:14:51;31.27;;;18.07;;
16272;SDS011;8244;50.044;9.006;2024-03-02T02:19:55;32.80;;;18.97;;
16272;SDS011;8244;50.044;9.006;2024-03-02T02:24:58;32.50;;;18.43;;
16272;SDS011;8244;50.044;9.006;2024-03-02T02:30:00;34.53;;;19.27;;
16272;SDS011;8244;50.044;9.006;2024-03-02T02:35:03;33.47;;;19.23;;
16272;SDS011;8244;50.044;9.006;2024-03-02T02:40:08;39.10;;;19.63;;
16272;SDS011;8244;50.044;9.006;2024-03-02T02:45:10;32.60;;;18.63;;
16272;SDS011;8244;50.044;9.006;2024-03-02T02:50:14;37.57;;;19.27;;
16272;SDS011;8244;50.044;9.006;2024-03-02T02:55:17;33.63;;;19.43;;
16272;SDS011;8244;50.044;9.006;2024-03-02T03:00:19;40.07;;;20.80;;
16272;SDS011;8244;50.044;9.006;2024-03-02T03:05:22;37.20;;;20.60;;
16272;SDS011;8244;50.044;9.006;2024-03-02T03:10:25;38.63;;;21.33;;
16272;SDS011;8244;50.044;9.006;2024-03-02T03:15:28;37.93;;;20.53;;
16272;SDS011;8244;50.044;9.006;2024-03-02T03:20:29;37.40;;;20.57;;
16272;SDS011;8244;50.044;9.006;2024-03-02T03:25:32;38.77;;;20.03;;
16272;SDS011;8244;50.044;9.006;2024-03-02T03:30:34;37.00;;;20.30;;
16272;SDS011;8244;50.044;9.006;2024-03-02T03:35:36;35.47;;;20.50;;
16272;SDS011;8244;50.044;9.006;2024-03-02T03:40:39;37.37;;;19.90;;
16272;SDS011;8244;50.044;9.006;2024-03-02T03:45:41;39.10;;;20.43;;
16272;SDS011;8244;50.044;9.006;2024-03-02T03:50:43;36.00;;;20.77;;
16272;SDS011;8244;50.044;9.006;2024-03-02T03:55:46;38.97;;;21.23;;
16272;SDS011;8244;50.044;9.006;2024-03-02T04:00:49;39.53;;;20.37;;
16272;SDS011;8244;50.044;9.006;2024-03-02T04:05:50;37.57;;;19.87;;
16272;SDS011;8244;50.044;9.006;2024-03-02T04:10:54;35.97;;;19.97;;
16272;SDS011;8244;50.044;9.006;2024-03-02T04:15:55;34.33;;;19.77;;
16272;SDS011;8244;50.044;9.006;2024-03-02T04:20:57;36.23;;;20.00;;
16272;SDS011;8244;50.044;9.006;2024-03-02T04:26:00;41.23;;;20.37;;
16272;SDS011;8244;50.044;9.006;2024-03-02T04:31:02;33.97;;;19.17;;
16272;SDS011;8244;50.044;9.006;2024-03-02T04:36:04;34.10;;;19.23;;
16272;SDS011;8244;50.044;9.006;2024-03-02T04:41:10;31.53;;;17.73;;
16272;SDS011;8244;50.044;9.006;2024-03-02T04:46:11;32.00;;;18.17;;
16272;SDS011;8244;50.044;9.006;2024-03-02T04:51:13;31.40;;;17.63;;
16272;SDS011;8244;50.044;9.006;2024-03-02T04:56:16;31.17;;;18.13;;
16272;SDS011;8244;50.044;9.006;2024-03-02T05:01:39;31.17;;;17.43;;
16272;SDS011;8244;50.044;9.006;2024-03-02T05:06:40;28.90;;;16.17;;
16272;SDS011;8244;50.044;9.006;2024-03-02T05:11:44;28.43;;;16.33;;
16272;SDS011;8244;50.044;9.006;2024-03-02T05:17:10;29.23;;;16.37;;
16272;SDS011;8244;50.044;9.006;2024-03-02T05:22:11;28.20;;;15.67;;
16272;SDS011;8244;50.044;9.006;2024-03-02T05:27:14;28.20;;;15.80;;
16272;SDS011;8244;50.044;9.006;2024-03-02T05:32:16;29.43;;;15.83;;
16272;SDS011;8244;50.044;9.006;2024-03-02T05:37:17;26.17;;;15.50;;
16272;SDS011;8244;50.044;9.006;2024-03-02T05:42:21;27.07;;;15.47;;
16272;SDS011;8244;50.044;9.006;2024-03-02T05:47:27;27.87;;;14.43;;
16272;SDS011;8244;50.044;9.006;2024-03-02T05:52:28;25.03;;;14.37;;
16272;SDS011;8244;50.044;9.006;2024-03-02T05:57:31;25.57;;;14.90;;
16272;SDS011;8244;50.044;9.006;2024-03-02T06:02:47;25.70;;;14.57;;
16272;SDS011;8244;50.044;9.006;2024-03-02T06:07:50;26.93;;;14.97;;
16272;SDS011;8244;50.044;9.006;2024-03-02T06:12:53;30.10;;;17.90;;
16272;SDS011;8244;50.044;9.006;2024-03-02T06:17:54;29.17;;;16.20;;
16272;SDS011;8244;50.044;9.006;2024-03-02T06:22:56;29.83;;;16.27;;
16272;SDS011;8244;50.044;9.006;2024-03-02T06:27:59;28.37;;;16.10;;
16272;SDS011;8244;50.044;9.006;2024-03-02T06:33:01;27.33;;;16.20;;
16272;SDS011;8244;50.044;9.006;2024-03-02T06:38:03;25.77;;;15.83;;
16272;SDS011;8244;50.044;9.006;2024-03-02T06:43:06;27.47;;;15.83;;
16272;SDS011;8244;50.044;9.006;2024-03-02T06:48:10;27.87;;;16.33;;
16272;SDS011;8244;50.044;9.006;2024-03-02T06:53:12;25.63;;;15.23;;
16272;SDS011;8244;50.044;9.006;2024-03-02T06:58:15;28.07;;;16.50;;
16272;SDS011;8244;50.044;9.006;2024-03-02T07:03:17;25.67;;;15.43;;
16272;SDS011;8244;50.044;9.006;2024-03-02T07:08:18;25.10;;;15.50;;
16272;SDS011;8244;50.044;9.006;2024-03-02T07:13:21;25.33;;;15.13;;
16272;SDS011;8244;50.044;9.006;2024-03-02T07:18:23;24.87;;;15.67;;
16272;SDS011;8244;50.044;9.006;2024-03-02T07:23:24;27.10;;;16.25;;
16272;SDS011;8244;50.044;9.006;2024-03-02T07:28:28;22.73;;;14.63;;
16272;SDS011;8244;50.044;9.006;2024-03-02T07:33:30;24.20;;;14.90;;
16272;SDS011;8244;50.044;9.006;2024-03-02T07:38:33;22.83;;;13.75;;
16272;SDS011;8244;50.044;9.006;2024-03-02T07:43:36;22.38;;;14.93;;
16272;SDS011;8244;50.044;9.006;2024-03-02T07:48:38;24.63;;;14.48;;
16272;SDS011;8244;50.044;9.006;2024-03-02T07:53:40;23.85;;;14.82;;
16272;SDS011;8244;50.044;9.006;2024-03-02T07:58:43;22.90;;;13.88;;
16272;SDS011;8244;50.044;9.006;2024-03-02T08:03:45;27.88;;;16.65;;
16272;SDS011;8244;50.044;9.006;2024-03-02T08:08:50;24.10;;;14.93;;
16272;SDS011;8244;50.044;9.006;2024-03-02T08:13:53;23.10;;;15.18;;
16272;SDS011;8244;50.044;9.006;2024-03-02T08:18:55;23.45;;;15.07;;
16272;SDS011;8244;50.044;9.006;2024-03-02T08:23:58;21.45;;;12.93;;
16272;SDS011;8244;50.044;9.006;2024-03-02T08:29:01;16.83;;;10.57;;
16272;SDS011;8244;50.044;9.006;2024-03-02T08:34:03;15.07;;;10.45;;
16272;SDS011;8244;50.044;9.006;2024-03-02T08:39:05;15.90;;;10.68;;
16272;SDS011;8244;50.044;9.006;2024-03-02T08:44:16;18.45;;;10.82;;
16272;SDS011;8244;50.044;9.006;2024-03-02T08:49:18;15.40;;;10.20;;
16272;SDS011;8244;50.044;9.006;2024-03-02T08:54:20;14.65;;;10.02;;
16272;SDS011;8244;50.044;9.006;2024-03-02T08:59:23;15.43;;;10.38;;
16272;SDS011;8244;50.044;9.006;2024-03-02T09:04:25;17.85;;;10.02;;
16272;SDS011;8244;50.044;9.006;2024-03-02T09:09:27;14.38;;;9.35;;
16272;SDS011;8244;50.044;9.006;2024-03-02T09:14:30;14.68;;;9.88;;
16272;SDS011;8244;50.044;9.006;2024-03-02T09:19:32;14.60;;;10.00;;
16272;SDS011;8244;50.044;9.006;2024-03-02T09:24:33;13.65;;;9.07;;
16272;SDS011;8244;50.044;9.006;2024-03-02T09:29:36;14.57;;;9.27;;
16272;SDS011;8244;50.044;9.006;2024-03-02T09:34:38;15.63;;;8.70;;
16272;SDS011;8244;50.044;9.006;2024-03-02T09:39:40;12.20;;;8.65;;
16272;SDS011;8244;50.044;9.006;2024-03-02T09:44:46;13.75;;;8.90;;
16272;SDS011;8244;50.044;9.006;2024-03-02T09:49:49;12.90;;;8.48;;
16272;SDS011;8244;50.044;9.006;2024-03-02T09:54:50;13.20;;;7.78;;
16272;SDS011;8244;50.044;9.006;2024-03-02T09:59:54;13.85;;;8.20;;
16272;SDS011;8244;50.044;9.006;2024-03-02T10:04:55;11.90;;;7.70;;
16272;SDS011;8244;50.044;9.006;2024-03-02T10:09:57;13.00;;;7.88;;
16272;SDS011;8244;50.044;9.006;2024-03-02T10:15:04;11.93;;;7.20;;
16272;SDS011;8244;50.044;9.006;2024-03-02T10:20:21;10.88;;;7.25;;
16272;SDS011;8244;50.044;9.006;2024-03-02T10:25:30;10.77;;;6.75;;
16272;SDS011;8244;50.044;9.006;2024-03-02T10:30:34;12.45;;;6.57;;
16272;SDS011;8244;50.044;9.006;2024-03-02T10:35:36;9.07;;;6.03;;
16272;SDS011;8244;50.044;9.006;2024-03-02T10:40:39;11.05;;;6.35;;
16272;SDS011;8244;50.044;9.006;2024-03-02T10:45:42;11.50;;;5.82;;
16272;SDS011;8244;50.044;9.006;2024-03-02T10:50:45;8.57;;;5.70;;
16272;SDS011;8244;50.044;9.006;2024-03-02T10:55:47;8.43;;;5.47;;
16272;SDS011;8244;50.044;9.006;2024-03-02T11:01:02;7.75;;;4.95;;
16272;SDS011;8244;50.044;9.006;2024-03-02T11:06:05;10.27;;;5.38;;
16272;SDS011;8244;50.044;9.006;2024-03-02T11:11:14;7.70;;;4.65;;
16272;SDS011;8244;50.044;9.006;2024-03-02T11:16:22;8.60;;;5.32;;
16272;SDS011;8244;50.044;9.006;2024-03-02T11:21:35;7.35;;;4.80;;
16272;SDS011;8244;50.044;9.006;2024-03-02T11:26:37;5.95;;;4.25;;
16272;SDS011;8244;50.044;9.006;2024-03-02T11:31:59;8.55;;;4.97;;
16272;SDS011;8244;50.044;9.006;2024-03-02T11:37:02;6.63;;;3.85;;
16272;SDS011;8244;50.044;9.006;2024-03-02T11:42:05;6.47;;;3.95;;
16272;SDS011;8244;50.044;9.006;2024-03-02T11:47:11;5.82;;;3.72;;
16272;SDS011;8244;50.044;9.006;2024-03-02T11:52:17;6.13;;;3.75;;
16272;SDS011;8244;50.044;9.006;2024-03-02T11:57:20;5.70;;;3.50;;
16272;SDS011;8244;50.044;9.006;2024-03-02T12:02:24;7.35;;;3.10;;
16272;SDS011;8244;50.044;9.006;2024-03-02T12:07:25;7.07;;;3.30;;
16272;SDS011;8244;50.044;9.006;2024-03-02T12:12:28;5.72;;;3.10;;
16272;SDS011;8244;50.044;9.006;2024-03-02T12:17:31;4.75;;;3.03;;
16272;SDS011;8244;50.044;9.006;2024-03-02T12:22:32;4.63;;;2.42;;
16272;SDS011;8244;50.044;9.006;2024-03-02T12:27:34;5.03;;;2.28;;
16272;SDS011;8244;50.044;9.006;2024-03-02T12:32:38;2.17;;;1.98;;
16272;SDS011;8244;50.044;9.006;2024-03-02T12:37:43;5.70;;;2.00;;
16272;SDS011;8244;50.044;9.006;2024-03-02T12:42:46;4.18;;;2.00;;
16272;SDS011;8244;50.044;9.006;2024-03-02T12:47:49;4.13;;;1.90;;
16272;SDS011;8244;50.044;9.006;2024-03-02T12:52:52;3.47;;;1.80;;
16272;SDS011;8244;50.044;9.006;2024-03-02T12:57:54;2.88;;;1.92;;
16272;SDS011;8244;50.044;9.006;2024-03-02T13:02:58;2.13;;;1.83;;
16272;SDS011;8244;50.044;9.006;2024-03-02T13:08:02;2.15;;;1.60;;
16272;SDS011;8244;50.044;9.006;2024-03-02T13:13:04;5.57;;;2.00;;
16272;SDS011;8244;50.044;9.006;2024-03-02T13:18:09;2.42;;;1.77;;
16272;SDS011;8244;50.044;9.006;2024-03-02T13:23:11;2.63;;;1.85;;
16272;SDS011;8244;50.044;9.006;2024-03-02T13:28:14;2.10;;;1.90;;
16272;SDS011;8244;50.044;9.006;2024-03-02T13:33:17;3.30;;;1.88;;
16272;SDS011;8244;50.044;9.006;2024-03-02T13:38:22;3.10;;;1.83;;
16272;SDS011;8244;50.044;9.006;2024-03-02T13:43:24;2.38;;;1.77;;
16272;SDS011;8244;50.044;9.006;2024-03-02T13:48:28;2.15;;;1.50;;
16272;SDS011;8244;50.044;9.006;2024-03-02T13:53:30;1.20;;;1.10;;
16272;SDS011;8244;50.044;9.006;2024-03-02T13:58:32;1.45;;;1.15;;
16272;SDS011;8244;50.044;9.006;2024-03-02T14:03:35;1.30;;;1.20;;
16272;SDS011;8244;50.044;9.006;2024-03-02T14:08:37;1.83;;;1.50;;
16272;SDS011;8244;50.044;9.006;2024-03-02T14:13:39;3.58;;;1.70;;
16272;SDS011;8244;50.044;9.006;2024-03-02T14:18:42;2.42;;;1.90;;
16272;SDS011;8244;50.044;9.006;2024-03-02T14:23:43;2.55;;;1.60;;
16272;SDS011;8244;50.044;9.006;2024-03-02T14:28:45;1.30;;;1.20;;
16272;SDS011;8244;50.044;9.006;2024-03-02T14:33:48;1.70;;;1.50;;
16272;SDS011;8244;50.044;9.006;2024-03-02T14:38:50;2.58;;;1.77;;
16272;SDS011;8244;50.044;9.006;2024-03-02T14:43:51;2.17;;;1.70;;
16272;SDS011;8244;50.044;9.006;2024-03-02T14:48:54;3.65;;;2.00;;
16272;SDS011;8244;50.044;9.006;2024-03-02T14:53:56;2.45;;;1.80;;
16272;SDS011;8244;50.044;9.006;2024-03-02T14:58:58;3.40;;;1.70;;
16272;SDS011;8244;50.044;9.006;2024-03-02T15:04:01;3.42;;;1.88;;
16272;SDS011;8244;50.044;9.006;2024-03-02T15:09:03;2.28;;;1.83;;
16272;SDS011;8244;50.044;9.006;2024-03-02T15:14:04;3.05;;;2.05;;
16272;SDS011;8244;50.044;9.006;2024-03-02T15:19:07;4.47;;;2.35;;
16272;SDS011;8244;50.044;9.006;2024-03-02T15:24:09;4.50;;;2.88;;
16272;SDS011;8244;50.044;9.006;2024-03-02T15:29:11;3.72;;;2.53;;
16272;SDS011;8244;50.044;9.006;2024-03-02T15:34:14;4.90;;;3.08;;
16272;SDS011;8244;50.044;9.006;2024-03-02T15:39:15;3.97;;;2.85;;
16272;SDS011;8244;50.044;9.006;2024-03-02T15:44:18;4.78;;;2.90;;
16272;SDS011;8244;50.044;9.006;2024-03-02T15:49:21;6.75;;;2.75;;
16272;SDS011;8244;50.044;9.006;2024-03-02T15:54:23;4.68;;;2.70;;
16272;SDS011;8244;50.044;9.006;2024-03-02T15:59:24;3.95;;;2.50;;
16272;SDS011;8244;50.044;9.006;2024-03-02T16:04:27;3.58;;;2.50;;
16272;SDS011;8244;50.044;9.006;2024-03-02T16:09:29;5.50;;;2.70;;
16272;SDS011;8244;50.044;9.006;2024-03-02T16:14:31;6.40;;;2.67;;
16272;SDS011;8244;50.044;9.006;2024-03-02T16:19:35;4.97;;;2.17;;
16272;SDS011;8244;50.044;9.006;2024-03-02T16:24:42;2.58;;;2.00;;
16272;SDS011;8244;50.044;9.006;2024-03-02T16:29:43;2.72;;;2.10;;
16272;SDS011;8244;50.044;9.006;2024-03-02T16:34:48;3.38;;;2.05;;
16272;SDS011;8244;50.044;9.006;2024-03-02T16:39:49;2.90;;;2.28;;
16272;SDS011;8244;50.044;9.006;2024-03-02T16:44:52;3.63;;;2.38;;
16272;SDS011;8244;50.044;9.006;2024-03-02T16:49:56;8.63;;;4.07;;
16272;SDS011;8244;50.044;9.006;2024-03-02T16:54:58;4.35;;;2.80;;
16272;SDS011;8244;50.044;9.006;2024-03-02T17:00:00;7.75;;;3.40;;
16272;SDS011;8244;50.044;9.006;2024-03-02T17:05:03;6.63;;;3.30;;
16272;SDS011;8244;50.044;9.006;2024-03-02T17:10:06;4.25;;;3.30;;
16272;SDS011;8244;50.044;9.006;2024-03-02T17:15:08;3.85;;;2.90;;
16272;SDS011;8244;50.044;9.006;2024-03-02T17:20:11;3.97;;;2.70;;
16272;SDS011;8244;50.044;9.006;2024-03-02T17:25:15;4.95;;;2.60;;
16272;SDS011;8244;50.044;9.006;2024-03-02T17:30:17;4.78;;;3.10;;
16272;SDS011;8244;50.044;9.006;2024-03-02T17:35:22;7.57;;;4.47;;
16272;SDS011;8244;50.044;9.006;2024-03-02T17:40:24;12.65;;;8.27;;
16272;SDS011;8244;50.044;9.006;2024-03-02T17:45:25;6.13;;;3.90;;
16272;SDS011;8244;50.044;9.006;2024-03-02T17:50:29;10.20;;;5.60;;
16272;SDS011;8244;50.044;9.006;2024-03-02T17:55:31;15.52;;;9.48;;
16272;SDS011;8244;50.044;9.006;2024-03-02T18:00:32;16.42;;;8.57;;
16272;SDS011;8244;50.044;9.006;2024-03-02T18:05:35;10.00;;;5.50;;
16272;SDS011;8244;50.044;9.006;2024-03-02T18:10:37;12.55;;;6.35;;
16272;SDS011;8244;50.044;9.006;2024-03-02T18:15:39;11.32;;;5.95;;
16272;SDS011;8244;50.044;9.006;2024-03-02T18:20:42;12.75;;;6.47;;
16272;SDS011;8244;50.044;9.006;2024-03-02T18:25:45;9.75;;;4.95;;
16272;SDS011;8244;50.044;9.006;2024-03-02T18:30:47;8.82;;;5.22;;
16272;SDS011;8244;50.044;9.006;2024-03-02T18:35:50;6.22;;;3.80;;
16272;SDS011;8244;50.044;9.006;2024-03-02T18:40:52;8.60;;;4.90;;
16272;SDS011;8244;50.044;9.006;2024-03-02T18:45:53;6.82;;;4.68;;
16272;SDS011;8244;50.044;9.006;2024-03-02T18:50:57;8.48;;;5.32;;
16272;SDS011;8244;50.044;9.006;2024-03-02T18:55:58;9.45;;;5.80;;
16272;SDS011;8244;50.044;9.006;2024-03-02T19:01:00;12.00;;;7.15;;
16272;SDS011;8244;50.044;9.006;2024-03-02T19:06:03;11.40;;;7.00;;
16272;SDS011;8244;50.044;9.006;2024-03-02T19:11:11;11.85;;;6.65;;
16272;SDS011;8244;50.044;9.006;2024-03-02T19:16:14;10.63;;;6.28;;
16272;SDS011;8244;50.044;9.006;2024-03-02T19:21:17;10.65;;;6.88;;
16272;SDS011;8244;50.044;9.006;2024-03-02T19:26:19;13.23;;;7.07;;
16272;SDS011;8244;50.044;9.006;2024-03-02T19:31:21;12.77;;;7.57;;
16272;SDS011;8244;50.044;9.006;2024-03-02T19:36:24;13.30;;;7.55;;
16272;SDS011;8244;50.044;9.006;2024-03-02T19:41:26;12.10;;;8.00;;
16272;SDS011;8244;50.044;9.006;2024-03-02T19:46:28;13.63;;;8.82;;
16272;SDS011;8244;50.044;9.006;2024-03-02T19:51:34;13.20;;;8.35;;
16272;SDS011;8244;50.044;9.006;2024-03-02T19:56:37;13.25;;;8.02;;
16272;SDS011;8244;50.044;9.006;2024-03-02T20:01:39;12.77;;;8.07;;
16272;SDS011;8244;50.044;9.006;2024-03-02T20:06:42;14.90;;;8.45;;
16272;SDS011;8244;50.044;9.006;2024-03-02T20:11:43;13.90;;;8.10;;
16272;SDS011;8244;50.044;9.006;2024-03-02T20:16:45;13.68;;;8.75;;
16272;SDS011;8244;50.044;9.006;2024-03-02T20:21:48;14.88;;;8.93;;
16272;SDS011;8244;50.044;9.006;2024-03-02T20:26:50;17.15;;;8.95;;
16272;SDS011;8244;50.044;9.006;2024-03-02T20:31:54;14.65;;;7.90;;
16272;SDS011;8244;50.044;9.006;2024-03-02T20:37:00;13.65;;;8.43;;
16272;SDS011;8244;50.044;9.006;2024-03-02T20:42:01;12.60;;;7.15;;
16272;SDS011;8244;50.044;9.006;2024-03-02T20:47:03;15.48;;;9.07;;
16272;SDS011;8244;50.044;9.006;2024-03-02T20:52:07;14.32;;;9.23;;
16272;SDS011;8244;50.044;9.006;2024-03-02T20:57:08;14.95;;;8.35;;
16272;SDS011;8244;50.044;9.006;2024-03-02T21:02:10;17.73;;;8.93;;
16272;SDS011;8244;50.044;9.006;2024-03-02T21:07:13;16.77;;;9.18;;
16272;SDS011;8244;50.044;9.006;2024-03-02T21:12:16;16.10;;;9.23;;
16272;SDS011;8244;50.044;9.006;2024-03-02T21:17:17;15.43;;;9.77;;
16272;SDS011;8244;50.044;9.006;2024-03-02T21:22:20;15.82;;;10.23;;
16272;SDS011;8244;50.044;9.006;2024-03-02T21:27:22;19.15;;;10.63;;
16272;SDS011;8244;50.044;9.006;2024-03-02T21:32:24;18.02;;;10.68;;
16272;SDS011;8244;50.044;9.006;2024-03-02T21:37:27;17.65;;;10.60;;
16272;SDS011;8244;50.044;9.006;2024-03-02T21:42:29;18.10;;;11.02;;
16272;SDS011;8244;50.044;9.006;2024-03-02T21:47:30;20.60;;;10.93;;
16272;SDS011;8244;50.044;9.006;2024-03-02T21:52:33;21.80;;;11.52;;
16272;SDS011;8244;50.044;9.006;2024-03-02T21:57:35;17.65;;;11.40;;
16272;SDS011;8244;50.044;9.006;2024-03-02T22:02:37;20.92;;;11.98;;
16272;SDS011;8244;50.044;9.006;2024-03-02T22:07:40;18.80;;;10.98;;
16272;SDS011;8244;50.044;9.006;2024-03-02T22:12:41;22.27;;;12.13;;
16272;SDS011;8244;50.044;9.006;2024-03-02T22:17:43;22.27;;;12.43;;
16272;SDS011;8244;50.044;9.006;2024-03-02T22:22:46;20.80;;;12.15;;
16272;SDS011;8244;50.044;9.006;2024-03-02T22:27:48;18.98;;;11.48;;
16272;SDS011;8244;50.044;9.006;2024-03-02T22:32:54;19.77;;;12.55;;
16272;SDS011;8244;50.044;9.006;2024-03-02T22:37:58;25.58;;;12.30;;
16272;SDS011;8244;50.044;9.006;2024-03-02T22:43:00;21.33;;;12.35;;
16272;SDS011;8244;50.044;9.006;2024-03-02T22:48:02;21.80;;;12.10;;
16272;SDS011;8244;50.044;9.006;2024-03-02T22:53:05;20.00;;;11.00;;
16272;SDS011;8244;50.044;9.006;2024-03-02T22:58:07;25.08;;;12.38;;
16272;SDS011;8244;50.044;9.006;2024-03-02T23:03:08;20.67;;;12.35;;
16272;SDS011;8244;50.044;9.006;2024-03-02T23:08:11;21.15;;;12.27;;
16272;SDS011;8244;50.044;9.006;2024-03-02T23:13:13;21.10;;;11.50;;
16272;SDS011;8244;50.044;9.006;2024-03-02T23:18:17;21.60;;;12.20;;
16272;SDS011;8244;50.044;9.006;2024-03-02T23:23:20;19.38;;;11.82;;
16272;SDS011;8244;50.044;9.006;2024-03-02T23:28:22;19.75;;;11.32;;
16272;SDS011;8244;50.044;9.006;2024-03-02T23:33:24;20.98;;;11.02;;
16272;SDS011;8244;50.044;9.006;2024-03-02T23:38:27;20.75;;;11.45;;
16272;SDS011;8244;50.044;9.006;2024-03-02T23:43:28;20.67;;;11.85;;
16272;SDS011;8244;50.044;9.006;2024-03-02T23:48:30;19.92;;;12.02;;
16272;SDS011;8244;50.044;9.006;2024-03-02T23:53:33;20.55;;;11.98;;
16272;SDS011;8244;50.044;9.006;2024-03-02T23:58:35;20.52;;;12.18;;
